John Quigg — WDB9828 — position and weather

sailwx.info

Track history (hours):
 
Tides and Currents Weather Stations Pressure Air Temp Water Temp Dewpoint Dewpoint Depression Visibility Wind Speed Wind Dir Waves Ship Positions

John Quigg

Owner: Harley Marine Services, Inc, Seattle, WA. More information available from US FCC via Universal Licensing System and Coast Guard Vessel Documentation Center.

Last reported at 2014-Oct-20 23:33 UTC. Time now 2014-Oct-21 00:35 UTC.
Position N 33°46' W 118°16'.

MMSI: 365934954.

Date/timePositionNaut miles runAvg speedWind from/ knotsBaromVisibWave heightAir tempDewpointWater temp
2014-Oct-20 23:33N 33°46' W 118°16'2 0.2
2014-Oct-20 12:33N 33°44' W 118°13'1 0.7
2014-Oct-20 11:33N 33°45' W 118°13'1 0.7
2014-Oct-20 10:33N 33°44' W 118°13'2 2.1
2014-Oct-20 09:33N 33°46' W 118°13'3 2.5
2014-Oct-20 08:33N 33°44' W 118°13'1 0.1
2014-Oct-19 23:33N 33°45' W 118°13'0 0.0
2014-Oct-19 22:33N 33°45' W 118°13'0 0.0
2014-Oct-19 21:33N 33°45' W 118°13'1 1.4
2014-Oct-19 20:33N 33°46' W 118°13'0 0.3
2014-Oct-19 19:33N 33°46' W 118°13'1 0.5
2014-Oct-19 18:33N 33°46' W 118°13'3 0.9
2014-Oct-19 15:26N 33°45' W 118°16'0 0.2
2014-Oct-19 14:32N 33°45' W 118°16'1 0.1
2014-Oct-19 03:33N 33°46' W 118°16'4 2.0
2014-Oct-19 01:32N 33°44' W 118°11'2 1.6
2014-Oct-19 00:33N 33°45' W 118°12'0 0.1
2014-Oct-18 21:33N 33°45' W 118°12'1 0.6
2014-Oct-18 20:33N 33°44' W 118°12'3 1.7
2014-Oct-18 18:33N 33°45' W 118°16'1 0.3
2014-Oct-18 15:11N 33°45' W 118°17'0 0.2
2014-Oct-18 13:07N 33°45' W 118°16'0 0.9
2014-Oct-18 12:33N 33°45' W 118°16'3 0.3
2014-Oct-18 03:13N 33°44' W 118°13'0 0.7
2014-Oct-18 02:33N 33°44' W 118°13'3 3.0
2014-Oct-18 01:33N 33°46' W 118°16'3 0.7
2014-Oct-17 21:24N 33°44' W 118°13'2 2.9
2014-Oct-17 20:33N 33°46' W 118°14'0 0.0
2014-Oct-17 19:33N 33°46' W 118°14'1 1.0
2014-Oct-17 18:29N 33°47' W 118°13'4 1.1
2014-Oct-17 15:17N 33°45' W 118°16'3 1.7
2014-Oct-17 13:30N 33°46' W 118°13'1 0.9
2014-Oct-17 12:33N 33°45' W 118°13'0 0.3
2014-Oct-17 11:33N 33°45' W 118°13'0 0.3
2014-Oct-17 10:33N 33°45' W 118°13'0 0.0
2014-Oct-17 09:33N 33°45' W 118°13'2 2.3
2014-Oct-17 08:33N 33°44' W 118°11'1 1.1
2014-Oct-17 07:28N 33°43' W 118°13'1 0.1
2014-Oct-16 22:10N 33°44' W 118°14'1 0.2
2014-Oct-16 14:18N 33°44' W 118°16'3 3.8
2014-Oct-16 13:32N 33°45' W 118°12'0 0.0
2014-Oct-16 12:33N 33°45' W 118°12'1 1.1
2014-Oct-16 11:33N 33°44' W 118°13'0 0.0
2014-Oct-16 01:31N 33°44' W 118°13'1 1.4
2014-Oct-16 00:27N 33°45' W 118°15'0 0.0
2014-Oct-15 23:33N 33°45' W 118°15'0 0.4
2014-Oct-15 22:33N 33°45' W 118°14'2 1.6
2014-Oct-15 21:33N 33°44' W 118°12'1 1.5
2014-Oct-15 20:33N 33°46' W 118°13'0 0.1
2014-Oct-15 19:33N 33°45' W 118°13'1 0.3
2014-Oct-15 16:21N 33°45' W 118°13'2 2.2
2014-Oct-15 15:33N 33°46' W 118°13'3 1.8
2014-Oct-15 14:06N 33°44' W 118°14'2 3.0
2014-Oct-15 13:33N 33°45' W 118°13'0 0.0
2014-Oct-15 12:33N 33°45' W 118°13'0 0.0
2014-Oct-15 11:33N 33°45' W 118°13'0 0.0
2014-Oct-15 10:33N 33°45' W 118°13'0 0.0
2014-Oct-15 09:33N 33°45' W 118°13'0 0.0
2014-Oct-15 08:33N 33°45' W 118°13'1 1.0
2014-Oct-15 07:33N 33°44' W 118°13'2 2.2
2014-Oct-15 06:33N 33°45' W 118°16'2 0.5
2014-Oct-15 01:31N 33°45' W 118°13'2 1.6
2014-Oct-15 00:33N 33°46' W 118°14'2 1.0
2014-Oct-14 22:33N 33°45' W 118°16'3 2.6
2014-Oct-14 21:20N 33°43' W 118°13'4 4.7
2014-Oct-14 20:34N 33°44' W 118°09'2 2.1
2014-Oct-14 19:32N 33°44' W 118°12'0 0.0
2014-Oct-14 18:33N 33°44' W 118°12'2 0.5
2014-Oct-14 15:32N 33°43' W 118°13'2 2.1
2014-Oct-14 14:33N 33°44' W 118°11'3 3.0
2014-Oct-14 13:33N 33°46' W 118°14'0 0.1
2014-Oct-14 12:25N 33°46' W 118°14'1 1.7
2014-Oct-14 11:33N 33°46' W 118°16'2 0.4
2014-Oct-14 06:32N 33°44' W 118°16'0 0.0
2014-Oct-14 05:31N 33°44' W 118°16'0 0.0
2014-Oct-14 04:32N 33°44' W 118°16'1 1.2
2014-Oct-14 03:27N 33°43' W 118°15'2 2.0
2014-Oct-14 02:33N 33°44' W 118°13'3 2.7
2014-Oct-14 01:33N 33°46' W 118°15'0 0.1
2014-Oct-14 00:33N 33°46' W 118°16'2 1.7
2014-Oct-13 23:32N 33°44' W 118°17'3 3.4
2014-Oct-13 22:33N 33°45' W 118°13'1 1.0
2014-Oct-13 21:32N 33°45' W 118°14'2 2.3
2014-Oct-13 20:33N 33°44' W 118°12'3 0.6
2014-Oct-13 15:13N 33°44' W 118°16'2 2.6
2014-Oct-13 14:25N 33°44' W 118°13'1 1.6
2014-Oct-13 13:31N 33°45' W 118°14'1 0.6
2014-Oct-13 12:33N 33°45' W 118°13'1 0.9
2014-Oct-13 11:33N 33°44' W 118°13'1 0.8
2014-Oct-13 10:33N 33°44' W 118°12'1 0.3
2014-Oct-13 06:16N 33°45' W 118°13'1 2.0
2014-Oct-13 05:33N 33°46' W 118°13'1 0.5
2014-Oct-13 04:33N 33°46' W 118°13'3 2.6
2014-Oct-13 03:13N 33°44' W 118°10'0 0.2
2014-Oct-13 02:33N 33°44' W 118°10'4 4.4
2014-Oct-13 01:32N 33°44' W 118°16'2 1.7
2014-Oct-13 00:32N 33°46' W 118°15'2 2.2
2014-Oct-12 23:33N 33°46' W 118°13'3 2.8
2014-Oct-12 22:31N 33°44' W 118°12'2 1.6
2014-Oct-12 21:33N 33°45' W 118°13'0 0.0
2014-Oct-12 20:33N 33°45' W 118°13'0 0.2
2014-Oct-12 19:33N 33°45' W 118°12'3 3.0
2014-Oct-12 18:33N 33°44' W 118°16'3 1.5
2014-Oct-12 16:33N 33°44' W 118°12'1 1.0
2014-Oct-12 15:33N 33°44' W 118°13'0 0.0
2014-Oct-12 14:33N 33°44' W 118°13'0 0.1
2014-Oct-12 13:12N 33°44' W 118°13'3 3.9
2014-Oct-12 12:32N 33°45' W 118°16'1 0.6
2014-Oct-12 11:33N 33°46' W 118°16'1 1.0
2014-Oct-12 10:32N 33°45' W 118°16'1 1.4
2014-Oct-12 09:28N 33°43' W 118°16'1 0.5
2014-Oct-12 08:21N 33°44' W 118°16'0 0.0
2014-Oct-12 07:33N 33°44' W 118°16'3 0.9
2014-Oct-12 04:33N 33°46' W 118°14'1 0.7
2014-Oct-12 03:27N 33°46' W 118°13'1 0.7
2014-Oct-12 02:33N 33°46' W 118°13'1 0.7
2014-Oct-12 01:33N 33°45' W 118°13'0 0.2
2014-Oct-12 00:33N 33°46' W 118°13'2 2.0
2014-Oct-11 23:28N 33°44' W 118°12'2 1.7
2014-Oct-11 22:13N 33°45' W 118°14'1 0.9
2014-Oct-11 20:31N 33°44' W 118°12'1 0.6
2014-Oct-11 19:33N 33°45' W 118°13'2 1.8
2014-Oct-11 18:33N 33°46' W 118°13'2 1.0
2014-Oct-11 16:04N 33°45' W 118°16'0 0.8
2014-Oct-11 15:33N 33°45' W 118°16'2 2.1
2014-Oct-11 14:33N 33°46' W 118°13'2 1.9
2014-Oct-11 13:32N 33°44' W 118°13'1 0.2
2014-Oct-11 09:33N 33°43' W 118°13'0 0.4
2014-Oct-11 08:33N 33°44' W 118°12'1 0.2
2014-Oct-11 03:32N 33°44' W 118°14'1 1.2
2014-Oct-11 02:33N 33°45' W 118°14'3 2.9
2014-Oct-11 01:32N 33°44' W 118°11'1 0.6
2014-Oct-11 00:33N 33°44' W 118°10'  
Track history (hours):
 
Tides and Currents Weather Stations Pressure Air Temp Water Temp Dewpoint Dewpoint Depression Visibility Wind Speed Wind Dir Waves Ship Positions

John Quigg

Owner: Harley Marine Services, Inc, Seattle, WA. More information available from US FCC via Universal Licensing System and Coast Guard Vessel Documentation Center.

Last reported at 2014-Oct-20 23:33 UTC. Time now 2014-Oct-21 00:35 UTC.
Position N 33°46' W 118°16'.

MMSI: 365934954.

Date/timePositionNaut miles runAvg speedWind from/ knotsBaromVisibWave heightAir tempDewpointWater temp
2014-Oct-20 23:33N 33°46' W 118°16'2 0.2
2014-Oct-20 12:33N 33°44' W 118°13'1 0.7
2014-Oct-20 11:33N 33°45' W 118°13'1 0.7
2014-Oct-20 10:33N 33°44' W 118°13'2 2.1
2014-Oct-20 09:33N 33°46' W 118°13'3 2.5
2014-Oct-20 08:33N 33°44' W 118°13'1 0.1
2014-Oct-19 23:33N 33°45' W 118°13'0 0.0
2014-Oct-19 22:33N 33°45' W 118°13'0 0.0
2014-Oct-19 21:33N 33°45' W 118°13'1 1.4
2014-Oct-19 20:33N 33°46' W 118°13'0 0.3
2014-Oct-19 19:33N 33°46' W 118°13'1 0.5
2014-Oct-19 18:33N 33°46' W 118°13'3 0.9
2014-Oct-19 15:26N 33°45' W 118°16'0 0.2
2014-Oct-19 14:32N 33°45' W 118°16'1 0.1
2014-Oct-19 03:33N 33°46' W 118°16'4 2.0
2014-Oct-19 01:32N 33°44' W 118°11'2 1.6
2014-Oct-19 00:33N 33°45' W 118°12'0 0.1
2014-Oct-18 21:33N 33°45' W 118°12'1 0.6
2014-Oct-18 20:33N 33°44' W 118°12'3 1.7
2014-Oct-18 18:33N 33°45' W 118°16'1 0.3
2014-Oct-18 15:11N 33°45' W 118°17'0 0.2
2014-Oct-18 13:07N 33°45' W 118°16'0 0.9
2014-Oct-18 12:33N 33°45' W 118°16'3 0.3
2014-Oct-18 03:13N 33°44' W 118°13'0 0.7
2014-Oct-18 02:33N 33°44' W 118°13'3 3.0
2014-Oct-18 01:33N 33°46' W 118°16'3 0.7
2014-Oct-17 21:24N 33°44' W 118°13'2 2.9
2014-Oct-17 20:33N 33°46' W 118°14'0 0.0
2014-Oct-17 19:33N 33°46' W 118°14'1 1.0
2014-Oct-17 18:29N 33°47' W 118°13'4 1.1
2014-Oct-17 15:17N 33°45' W 118°16'3 1.7
2014-Oct-17 13:30N 33°46' W 118°13'1 0.9
2014-Oct-17 12:33N 33°45' W 118°13'0 0.3
2014-Oct-17 11:33N 33°45' W 118°13'0 0.3
2014-Oct-17 10:33N 33°45' W 118°13'0 0.0
2014-Oct-17 09:33N 33°45' W 118°13'2 2.3
2014-Oct-17 08:33N 33°44' W 118°11'1 1.1
2014-Oct-17 07:28N 33°43' W 118°13'1 0.1
2014-Oct-16 22:10N 33°44' W 118°14'1 0.2
2014-Oct-16 14:18N 33°44' W 118°16'3 3.8
2014-Oct-16 13:32N 33°45' W 118°12'0 0.0
2014-Oct-16 12:33N 33°45' W 118°12'1 1.1
2014-Oct-16 11:33N 33°44' W 118°13'0 0.0
2014-Oct-16 01:31N 33°44' W 118°13'1 1.4
2014-Oct-16 00:27N 33°45' W 118°15'0 0.0
2014-Oct-15 23:33N 33°45' W 118°15'0 0.4
2014-Oct-15 22:33N 33°45' W 118°14'2 1.6
2014-Oct-15 21:33N 33°44' W 118°12'1 1.5
2014-Oct-15 20:33N 33°46' W 118°13'0 0.1
2014-Oct-15 19:33N 33°45' W 118°13'1 0.3
2014-Oct-15 16:21N 33°45' W 118°13'2 2.2
2014-Oct-15 15:33N 33°46' W 118°13'3 1.8
2014-Oct-15 14:06N 33°44' W 118°14'2 3.0
2014-Oct-15 13:33N 33°45' W 118°13'0 0.0
2014-Oct-15 12:33N 33°45' W 118°13'0 0.0
2014-Oct-15 11:33N 33°45' W 118°13'0 0.0
2014-Oct-15 10:33N 33°45' W 118°13'0 0.0
2014-Oct-15 09:33N 33°45' W 118°13'0 0.0
2014-Oct-15 08:33N 33°45' W 118°13'1 1.0
2014-Oct-15 07:33N 33°44' W 118°13'2 2.2
2014-Oct-15 06:33N 33°45' W 118°16'2 0.5
2014-Oct-15 01:31N 33°45' W 118°13'2 1.6
2014-Oct-15 00:33N 33°46' W 118°14'2 1.0
2014-Oct-14 22:33N 33°45' W 118°16'3 2.6
2014-Oct-14 21:20N 33°43' W 118°13'4 4.7
2014-Oct-14 20:34N 33°44' W 118°09'2 2.1
2014-Oct-14 19:32N 33°44' W 118°12'0 0.0
2014-Oct-14 18:33N 33°44' W 118°12'2 0.5
2014-Oct-14 15:32N 33°43' W 118°13'2 2.1
2014-Oct-14 14:33N 33°44' W 118°11'3 3.0
2014-Oct-14 13:33N 33°46' W 118°14'0 0.1
2014-Oct-14 12:25N 33°46' W 118°14'1 1.7
2014-Oct-14 11:33N 33°46' W 118°16'2 0.4
2014-Oct-14 06:32N 33°44' W 118°16'0 0.0
2014-Oct-14 05:31N 33°44' W 118°16'0 0.0
2014-Oct-14 04:32N 33°44' W 118°16'1 1.2
2014-Oct-14 03:27N 33°43' W 118°15'2 2.0
2014-Oct-14 02:33N 33°44' W 118°13'3 2.7
2014-Oct-14 01:33N 33°46' W 118°15'0 0.1
2014-Oct-14 00:33N 33°46' W 118°16'2 1.7
2014-Oct-13 23:32N 33°44' W 118°17'3 3.4
2014-Oct-13 22:33N 33°45' W 118°13'1 1.0
2014-Oct-13 21:32N 33°45' W 118°14'2 2.3
2014-Oct-13 20:33N 33°44' W 118°12'3 0.6
2014-Oct-13 15:13N 33°44' W 118°16'2 2.6
2014-Oct-13 14:25N 33°44' W 118°13'1 1.6
2014-Oct-13 13:31N 33°45' W 118°14'1 0.6
2014-Oct-13 12:33N 33°45' W 118°13'1 0.9
2014-Oct-13 11:33N 33°44' W 118°13'1 0.8
2014-Oct-13 10:33N 33°44' W 118°12'1 0.3
2014-Oct-13 06:16N 33°45' W 118°13'1 2.0
2014-Oct-13 05:33N 33°46' W 118°13'1 0.5
2014-Oct-13 04:33N 33°46' W 118°13'3 2.6
2014-Oct-13 03:13N 33°44' W 118°10'0 0.2
2014-Oct-13 02:33N 33°44' W 118°10'4 4.4
2014-Oct-13 01:32N 33°44' W 118°16'2 1.7
2014-Oct-13 00:32N 33°46' W 118°15'2 2.2
2014-Oct-12 23:33N 33°46' W 118°13'3 2.8
2014-Oct-12 22:31N 33°44' W 118°12'2 1.6
2014-Oct-12 21:33N 33°45' W 118°13'0 0.0
2014-Oct-12 20:33N 33°45' W 118°13'0 0.2
2014-Oct-12 19:33N 33°45' W 118°12'3 3.0
2014-Oct-12 18:33N 33°44' W 118°16'3 1.5
2014-Oct-12 16:33N 33°44' W 118°12'1 1.0
2014-Oct-12 15:33N 33°44' W 118°13'0 0.0
2014-Oct-12 14:33N 33°44' W 118°13'0 0.1
2014-Oct-12 13:12N 33°44' W 118°13'3 3.9
2014-Oct-12 12:32N 33°45' W 118°16'1 0.6
2014-Oct-12 11:33N 33°46' W 118°16'1 1.0
2014-Oct-12 10:32N 33°45' W 118°16'1 1.4
2014-Oct-12 09:28N 33°43' W 118°16'1 0.5
2014-Oct-12 08:21N 33°44' W 118°16'0 0.0
2014-Oct-12 07:33N 33°44' W 118°16'3 0.9
2014-Oct-12 04:33N 33°46' W 118°14'1 0.7
2014-Oct-12 03:27N 33°46' W 118°13'1 0.7
2014-Oct-12 02:33N 33°46' W 118°13'1 0.7
2014-Oct-12 01:33N 33°45' W 118°13'0 0.2
2014-Oct-12 00:33N 33°46' W 118°13'2 2.0
2014-Oct-11 23:28N 33°44' W 118°12'2 1.7
2014-Oct-11 22:13N 33°45' W 118°14'1 0.9
2014-Oct-11 20:31N 33°44' W 118°12'1 0.6
2014-Oct-11 19:33N 33°45' W 118°13'2 1.8
2014-Oct-11 18:33N 33°46' W 118°13'2 1.0
2014-Oct-11 16:04N 33°45' W 118°16'0 0.8
2014-Oct-11 15:33N 33°45' W 118°16'2 2.1
2014-Oct-11 14:33N 33°46' W 118°13'2 1.9
2014-Oct-11 13:32N 33°44' W 118°13'1 0.2
2014-Oct-11 09:33N 33°43' W 118°13'0 0.4
2014-Oct-11 08:33N 33°44' W 118°12'1 0.2
2014-Oct-11 03:32N 33°44' W 118°14'1 1.2
2014-Oct-11 02:33N 33°45' W 118°14'3 2.9
2014-Oct-11 01:32N 33°44' W 118°11'1 0.6
2014-Oct-11 00:33N 33°44' W 118°10'  

Dump ship's entire track history